createdAt,value
2019-04-22T00:00:04.707Z,11.9
2019-04-22T10:35:19.727Z,11.1
2019-04-22T10:40:11.441Z,11.0
2019-04-22T10:45:01.479Z,10.8
2019-04-22T10:50:04.485Z,10.9
2019-04-22T10:55:03.280Z,11.0
2019-04-22T11:00:03.021Z,11.8
2019-04-22T11:05:02.364Z,12.4
2019-04-22T11:15:01.471Z,12.2
2019-04-22T11:20:03.916Z,12.0
2019-04-22T11:25:01.686Z,11.4
2019-04-22T11:30:04.415Z,11.0
2019-04-22T11:35:03.626Z,11.2
2019-04-22T11:40:34.442Z,11.1
2019-04-22T11:45:01.761Z,11.0
2019-04-22T11:50:03.943Z,11.1
2019-04-22T12:00:04.892Z,11.2
2019-04-22T12:05:03.973Z,11.6
2019-04-22T12:15:01.393Z,11.8
2019-04-22T12:20:12.250Z,12.0
2019-04-22T12:25:01.618Z,12.9
2019-04-22T12:30:02.878Z,13.7
2019-04-22T12:35:02.221Z,14.3
2019-04-22T12:40:04.761Z,14.7
2019-04-22T12:45:04.219Z,15.2
2019-04-22T12:50:27.375Z,14.5
2019-04-22T12:55:01.992Z,13.8
2019-04-22T13:00:03.849Z,13.8
2019-04-22T13:05:01.478Z,13.4
2019-04-22T13:10:01.918Z,13.7
2019-04-22T13:15:07.910Z,13.7
2019-04-22T13:20:02.919Z,14.1
2019-04-22T13:30:08.135Z,14.4
2019-04-22T13:35:07.014Z,13.9
2019-04-22T13:40:03.410Z,13.6
2019-04-22T13:45:02.376Z,13.3
2019-04-22T14:00:12.238Z,12.8
2019-04-22T14:05:01.470Z,13.1
2019-04-22T14:10:04.328Z,13.2
2019-04-22T14:15:04.154Z,13.3
2019-04-22T14:20:02.908Z,13.2
2019-04-22T14:25:03.201Z,12.8
2019-04-22T14:30:08.313Z,11.8
2019-04-22T14:36:02.903Z,11.2
2019-04-22T14:41:02.836Z,10.1
2019-04-22T14:56:04.270Z,9.2
2019-04-22T15:01:03.480Z,9.1
2019-04-22T15:06:03.872Z,8.9
2019-04-22T15:11:02.529Z,9.0
2019-04-22T15:16:03.579Z,8.3
2019-04-22T15:21:02.869Z,8.5
2019-04-22T15:26:02.690Z,8.4
2019-04-22T15:31:01.924Z,8.6
2019-04-22T15:36:01.804Z,8.4
2019-04-22T15:41:03.017Z,8.6
2019-04-22T15:56:02.886Z,9.1
2019-04-22T16:01:28.635Z,9.6
2019-04-22T16:06:08.518Z,10.2
2019-04-22T16:11:02.431Z,10.2
2019-04-22T16:16:02.993Z,10.4
2019-04-22T16:21:03.046Z,11.2
2019-04-22T16:26:03.220Z,10.8
2019-04-22T16:31:01.792Z,10.8
2019-04-22T16:36:03.061Z,11.0
2019-04-22T16:41:02.843Z,11.0
2019-04-22T16:46:03.284Z,10.9
2019-04-22T16:51:04.515Z,11.1
2019-04-22T17:01:04.777Z,10.4
2019-04-22T17:06:01.792Z,10.3
2019-04-22T17:11:02.274Z,10.0
2019-04-22T17:16:02.808Z,9.9
2019-04-22T17:21:12.989Z,9.9
2019-04-22T17:26:08.590Z,10.0
2019-04-22T17:31:02.294Z,10.4
2019-04-22T17:36:01.467Z,10.2
2019-04-22T19:02:19.916Z,10.6
2019-04-22T22:40:27.590Z,15.0
2019-04-22T22:45:43.610Z,15.4
2019-04-22T23:20:07.189Z,14.7
2019-04-22T23:30:37.816Z,13.9
